createdAt,value
2023-02-03T00:00:34.081Z,99205.25
2023-02-03T00:03:03.055Z,99210.35
2023-02-03T00:05:33.296Z,99213.56
2023-02-03T00:08:03.080Z,99209.59
2023-02-03T00:10:35.018Z,99205.73
2023-02-03T00:13:03.105Z,99208.38
2023-02-03T00:15:31.551Z,99208.11
2023-02-03T00:17:59.759Z,99207.02
2023-02-03T00:20:29.459Z,99206.34
2023-02-03T00:23:08.583Z,99203.98
2023-02-03T00:25:37.449Z,99203.78
2023-02-03T00:28:07.710Z,99209.66
2023-02-03T00:30:36.686Z,99212.06
2023-02-03T00:33:05.250Z,99212.48
2023-02-03T00:35:35.952Z,99209.52
2023-02-03T00:38:06.556Z,99216.75
2023-02-03T00:40:36.286Z,99217.88
2023-02-03T00:43:04.822Z,99218.59
2023-02-03T00:45:34.242Z,99211.36
2023-02-03T00:48:03.621Z,99210.64
2023-02-03T00:50:32.715Z,99211.99
2023-02-03T00:53:01.206Z,99215.72
2023-02-03T00:55:29.568Z,99214.37
2023-02-03T00:58:00.259Z,99213.90
2023-02-03T01:00:29.401Z,99216.87
2023-02-03T01:02:58.573Z,99221.95
2023-02-03T01:05:27.380Z,99224.64
2023-02-03T01:07:57.677Z,99223.98
2023-02-03T01:10:25.955Z,99222.59
2023-02-03T01:12:57.291Z,99221.66
2023-02-03T01:15:26.102Z,99222.09
2023-02-03T01:17:57.374Z,99220.09
2023-02-03T01:20:26.973Z,99221.15
2023-02-03T01:22:55.256Z,99224.98
2023-02-03T01:25:24.275Z,99225.45
2023-02-03T01:27:53.495Z,99225.98
2023-02-03T01:30:21.780Z,99227.54
2023-02-03T01:32:49.916Z,99227.95
2023-02-03T01:35:18.236Z,99227.66
2023-02-03T01:37:46.698Z,99221.67
2023-02-03T01:40:14.838Z,99220.30
2023-02-03T01:42:43.096Z,99218.96
2023-02-03T01:45:13.470Z,99217.57
2023-02-03T01:47:54.048Z,99220.36
2023-02-03T01:50:31.320Z,99220.92
2023-02-03T01:53:04.585Z,99221.63
2023-02-03T01:55:36.181Z,99220.58
2023-02-03T01:58:19.796Z,99224.04
2023-02-03T02:00:50.545Z,99224.86
2023-02-03T02:03:24.328Z,99221.08
2023-02-03T02:05:56.800Z,99223.44
2023-02-03T02:08:24.799Z,99218.33
2023-02-03T02:10:52.792Z,99216.55
2023-02-03T02:50:52.535Z,99220.49
2023-02-03T02:53:22.726Z,99216.57
2023-02-03T02:55:52.565Z,99209.52
2023-02-03T02:58:21.378Z,99210.98
2023-02-03T03:00:49.800Z,99221.33
2023-02-03T03:03:21.247Z,99222.55
2023-02-03T03:05:55.428Z,99217.22
2023-02-03T03:08:50.118Z,99213.67
2023-02-03T03:11:18.252Z,99213.35
2023-02-03T03:13:49.741Z,99209.27
2023-02-03T03:16:19.737Z,99209.10
2023-02-03T03:18:49.783Z,99211.22
2023-02-03T03:21:23.183Z,99215.31
2023-02-03T03:23:51.799Z,99217.64
2023-02-03T03:26:32.975Z,99216.67
2023-02-03T03:29:09.350Z,99213.78
2023-02-03T03:31:37.667Z,99211.62
2023-02-03T03:34:06.022Z,99214.08
2023-02-03T03:36:43.038Z,99210.66
2023-02-03T03:39:21.519Z,99210.98
2023-02-03T03:42:23.727Z,99216.33
2023-02-03T03:45:02.622Z,99216.79
2023-02-03T03:47:41.902Z,99217.00
2023-02-03T03:50:12.822Z,99218.22
2023-02-03T03:52:41.152Z,99221.41
2023-02-03T03:55:11.070Z,99220.72
2023-02-03T03:57:45.737Z,99221.77
2023-02-03T04:00:16.062Z,99222.12
2023-02-03T04:02:44.930Z,99224.38
2023-02-03T04:05:13.383Z,99227.05
2023-02-03T04:07:43.211Z,99222.61
2023-02-03T04:10:29.187Z,99219.05
2023-02-03T04:12:57.784Z,99220.71
2023-02-03T04:15:25.964Z,99225.52
2023-02-03T04:17:57.337Z,99219.40
2023-02-03T04:20:25.906Z,99221.89
2023-02-03T04:22:54.221Z,99224.73
2023-02-03T04:25:22.357Z,99231.70
2023-02-03T04:27:51.005Z,99229.87
2023-02-03T04:30:19.066Z,99229.71
2023-02-03T04:32:47.461Z,99230.45
2023-02-03T04:35:15.624Z,99223.45
2023-02-03T04:37:44.809Z,99226.54
2023-02-03T04:40:12.928Z,99225.17
2023-02-03T04:42:41.316Z,99224.77
2023-02-03T04:45:10.451Z,99228.34
2023-02-03T04:47:40.602Z,99228.09
2023-02-03T04:50:09.149Z,99224.65
2023-02-03T04:52:37.194Z,99219.17
2023-02-03T04:55:05.797Z,99221.31
2023-02-03T04:57:35.620Z,99224.96
2023-02-03T05:00:03.991Z,99228.85
2023-02-03T05:02:33.625Z,99237.10
2023-02-03T05:05:01.696Z,99240.95
2023-02-03T05:07:29.793Z,99244.25
2023-02-03T05:09:57.823Z,99243.42
2023-02-03T05:12:26.591Z,99249.84
2023-02-03T05:14:55.669Z,99251.98
2023-02-03T05:17:23.866Z,99252.58
2023-02-03T05:19:51.905Z,99257.42
2023-02-03T05:22:20.122Z,99253.80
2023-02-03T05:24:48.113Z,99250.45
2023-02-03T05:27:16.093Z,99247.69
2023-02-03T05:29:44.116Z,99251.39
2023-02-03T05:32:12.119Z,99256.98
2023-02-03T05:34:42.292Z,99263.77
2023-02-03T05:37:10.444Z,99272.19
2023-02-03T05:39:38.779Z,99276.27
2023-02-03T05:42:07.182Z,99277.87
2023-02-03T05:44:35.680Z,99282.98
2023-02-03T05:47:03.639Z,99286.90
2023-02-03T05:49:35.664Z,99290.91
2023-02-03T05:52:06.768Z,99289.81
2023-02-03T05:54:34.960Z,99295.73
2023-02-03T05:57:03.030Z,99295.74
2023-02-03T05:59:31.005Z,99299.40
2023-02-03T06:01:59.187Z,99299.13
2023-02-03T06:04:27.266Z,99300.12
2023-02-03T06:06:55.373Z,99301.06
2023-02-03T06:09:23.338Z,99297.34
2023-02-03T06:11:52.882Z,99300.98
2023-02-03T06:14:21.180Z,99301.46
2023-02-03T06:16:49.551Z,99302.91
2023-02-03T06:19:19.013Z,99308.95
2023-02-03T06:21:47.178Z,99311.98
2023-02-03T06:24:15.406Z,99315.44
2023-02-03T06:26:43.428Z,99319.95
2023-02-03T06:29:11.567Z,99318.44
2023-02-03T06:31:39.741Z,99320.61
2023-02-03T06:34:08.978Z,99322.52
2023-02-03T06:36:37.044Z,99324.85
2023-02-03T06:39:05.146Z,99321.09
2023-02-03T06:41:33.220Z,99327.83
2023-02-03T06:44:01.191Z,99334.11
2023-02-03T06:46:30.560Z,99338.36
2023-02-03T06:48:58.864Z,99335.76
2023-02-03T06:51:27.998Z,99341.76
2023-02-03T06:53:58.956Z,99338.70
2023-02-03T06:56:27.040Z,99338.81
2023-02-03T06:58:55.037Z,99346.89
2023-02-03T07:01:23.390Z,99340.75
2023-02-03T07:03:51.965Z,99343.02
2023-02-03T07:06:20.029Z,99344.98
2023-02-03T07:08:48.009Z,99344.45
2023-02-03T07:11:16.921Z,99345.19
2023-02-03T07:13:45.249Z,99346.80
2023-02-03T07:16:13.862Z,99347.06
2023-02-03T07:18:49.196Z,99351.06
2023-02-03T07:21:17.495Z,99352.73
2023-02-03T07:23:49.552Z,99356.94
2023-02-03T07:26:18.607Z,99352.77
2023-02-03T07:28:49.034Z,99354.50
2023-02-03T07:31:17.243Z,99354.90
2023-02-03T07:33:45.475Z,99362.09
2023-02-03T07:36:13.679Z,99365.48
2023-02-03T07:38:41.925Z,99370.61
2023-02-03T07:41:10.343Z,99368.70
2023-02-03T07:43:39.274Z,99373.27
2023-02-03T07:46:08.581Z,99372.61
2023-02-03T07:48:38.528Z,99383.23
2023-02-03T07:51:06.811Z,99382.93
2023-02-03T07:53:35.839Z,99385.41
2023-02-03T07:56:04.780Z,99388.99
2023-02-03T07:58:32.955Z,99387.23
2023-02-03T08:01:01.146Z,99375.48
2023-02-03T08:03:30.772Z,99380.35
2023-02-03T08:06:01.590Z,99386.73
2023-02-03T08:08:29.666Z,99392.31
2023-02-03T08:10:58.159Z,99390.40
2023-02-03T08:13:26.748Z,99383.42
2023-02-03T08:15:57.921Z,99381.22
2023-02-03T08:18:25.950Z,99384.44
2023-02-03T08:20:54.514Z,99386.92
2023-02-03T08:23:22.586Z,99384.27
2023-02-03T08:25:52.135Z,99391.38
2023-02-03T08:28:20.412Z,99385.42
2023-02-03T08:30:49.025Z,99390.19
2023-02-03T08:33:17.945Z,99399.09
2023-02-03T08:35:48.333Z,99404.23
2023-02-03T08:38:16.797Z,99407.95
2023-02-03T08:40:45.100Z,99403.52
2023-02-03T08:43:16.040Z,99401.97
2023-02-03T08:45:46.546Z,99404.61
2023-02-03T08:48:18.475Z,99403.85
2023-02-03T08:50:52.895Z,99407.34
2023-02-03T08:53:22.988Z,99407.27
2023-02-03T08:55:52.503Z,99410.85
2023-02-03T08:58:21.654Z,99409.45
2023-02-03T09:00:50.056Z,99411.55
2023-02-03T09:03:18.363Z,99409.34
2023-02-03T09:05:47.054Z,99406.05
2023-02-03T09:08:17.592Z,99409.13
2023-02-03T09:10:47.569Z,99404.80
2023-02-03T09:13:19.797Z,99411.16
2023-02-03T09:15:49.871Z,99407.68
2023-02-03T09:18:18.338Z,99406.61
2023-02-03T09:20:47.474Z,99409.35
2023-02-03T09:23:18.060Z,99414.81
2023-02-03T09:25:49.871Z,99414.27
2023-02-03T09:28:18.361Z,99411.66
2023-02-03T09:30:47.718Z,99411.04
2023-02-03T09:33:19.072Z,99413.07
2023-02-03T09:35:54.616Z,99415.62
2023-02-03T09:38:22.884Z,99412.56
2023-02-03T09:41:11.294Z,99415.05
2023-02-03T12:07:05.217Z,99367.75
2023-02-03T12:10:22.665Z,99362.30
2023-02-03T12:12:57.938Z,99362.40
2023-02-03T12:15:34.672Z,99357.40
2023-02-03T12:24:36.002Z,99357.67
2023-02-03T12:27:23.239Z,99362.88
2023-02-03T12:30:03.732Z,99362.73
2023-02-03T12:32:55.830Z,99362.24
2023-02-03T12:35:32.132Z,99361.65
2023-02-03T12:38:16.400Z,99360.23
2023-02-03T12:41:01.923Z,99360.73
2023-02-03T12:43:33.455Z,99370.11
2023-02-03T12:46:05.787Z,99371.30
2023-02-03T12:48:52.305Z,99375.88
2023-02-03T12:51:49.911Z,99375.02
2023-02-03T12:54:39.241Z,99374.73
2023-02-03T12:57:24.885Z,99376.70
2023-02-03T13:00:01.899Z,99378.70
2023-02-03T13:02:33.285Z,99382.33
2023-02-03T13:05:16.128Z,99379.89
2023-02-03T13:07:52.505Z,99376.95
2023-02-03T13:10:32.502Z,99372.59
2023-02-03T13:13:00.873Z,99371.11
2023-02-03T13:15:53.565Z,99371.27
2023-02-03T13:18:31.677Z,99371.47
2023-02-03T13:20:59.701Z,99371.20
2023-02-03T13:23:27.971Z,99367.98
2023-02-03T13:26:17.669Z,99370.77
2023-02-03T13:29:04.845Z,99369.48
2023-02-03T13:31:45.177Z,99366.58
2023-02-03T13:34:55.095Z,99372.40
2023-02-03T13:37:31.099Z,99370.61
2023-02-03T13:40:17.815Z,99372.34
2023-02-03T13:42:48.319Z,99372.59
2023-02-03T13:45:34.293Z,99370.79
2023-02-03T13:48:43.860Z,99368.01
2023-02-03T13:51:22.779Z,99368.42
2023-02-03T13:53:51.683Z,99369.48
2023-02-03T13:56:24.017Z,99373.05
2023-02-03T13:59:14.801Z,99371.84
2023-02-03T14:01:45.833Z,99371.34
2023-02-03T14:04:23.987Z,99373.34
2023-02-03T14:07:26.256Z,99370.97
2023-02-03T14:10:14.085Z,99376.22
2023-02-03T14:12:51.347Z,99374.74
2023-02-03T14:15:22.400Z,99376.58
2023-02-03T14:17:50.919Z,99375.75
2023-02-03T14:20:25.324Z,99371.27
2023-02-03T14:22:54.387Z,99376.24
2023-02-03T14:25:24.769Z,99375.83
2023-02-03T14:28:00.243Z,99377.16
2023-02-03T14:30:28.440Z,99380.19
2023-02-03T14:33:00.524Z,99378.58
2023-02-03T14:35:32.246Z,99376.15
2023-02-03T14:38:05.264Z,99372.10
2023-02-03T14:40:39.421Z,99364.84
2023-02-03T14:43:45.592Z,99365.50
2023-02-03T14:46:22.698Z,99366.75
2023-02-03T14:49:20.792Z,99368.38
2023-02-03T14:52:10.853Z,99373.53
2023-02-03T14:55:01.321Z,99374.69
2023-02-03T14:57:49.272Z,99372.58
2023-02-03T15:00:20.452Z,99377.98
2023-02-03T15:03:10.254Z,99377.56
2023-02-03T15:05:43.489Z,99380.52
2023-02-03T15:08:30.566Z,99383.72
2023-02-03T15:10:59.253Z,99383.50
2023-02-03T15:13:31.446Z,99380.18
2023-02-03T15:16:04.496Z,99378.95
2023-02-03T15:18:36.328Z,99379.27
2023-02-03T15:21:04.564Z,99381.80
2023-02-03T15:23:43.218Z,99381.61
2023-02-03T15:26:14.033Z,99385.66
2023-02-03T15:28:42.708Z,99390.95
2023-02-03T15:31:20.458Z,99392.51
2023-02-03T15:33:50.121Z,99392.23
2023-02-03T15:36:21.976Z,99391.44
2023-02-03T15:38:57.095Z,99390.60
2023-02-03T15:41:26.063Z,99392.75
2023-02-03T15:44:00.315Z,99390.52
2023-02-03T15:46:33.276Z,99395.16
2023-02-03T15:49:07.426Z,99395.92
2023-02-03T15:51:36.320Z,99398.63
2023-02-03T15:54:19.261Z,99400.41
2023-02-03T15:56:55.093Z,99398.05
2023-02-03T15:59:43.030Z,99397.79
2023-02-03T16:02:33.452Z,99402.42
2023-02-03T16:05:06.652Z,99404.05
2023-02-03T16:07:34.903Z,99401.83
2023-02-03T16:10:30.677Z,99400.75
2023-02-03T16:13:20.012Z,99403.77
2023-02-03T16:16:12.167Z,99401.78
2023-02-03T16:18:40.476Z,99405.54
2023-02-03T16:21:27.571Z,99406.58
2023-02-03T16:23:55.706Z,99408.77
2023-02-03T16:26:28.217Z,99408.79
2023-02-03T16:29:27.023Z,99404.29
2023-02-03T16:32:14.293Z,99407.14
2023-02-03T16:35:01.361Z,99402.05
2023-02-03T16:37:52.054Z,99401.73
2023-02-03T16:40:40.768Z,99398.76
2023-02-03T16:43:32.889Z,99400.46
2023-02-03T16:46:19.766Z,99400.58
2023-02-03T16:49:06.711Z,99399.85
2023-02-03T16:51:39.352Z,99405.83
2023-02-03T16:54:10.690Z,99400.80
2023-02-03T16:56:39.226Z,99396.68
2023-02-03T16:59:07.220Z,99397.77
2023-02-03T17:01:37.081Z,99396.36
2023-02-03T17:04:05.517Z,99400.52
2023-02-03T17:06:38.140Z,99397.59
2023-02-03T17:09:06.841Z,99397.30
2023-02-03T17:11:34.875Z,99395.08
2023-02-03T17:14:03.727Z,99394.64
2023-02-03T17:16:33.423Z,99393.89
2023-02-03T17:19:01.603Z,99392.17
2023-02-03T17:21:30.124Z,99389.54
2023-02-03T17:23:59.705Z,99390.69
2023-02-03T17:26:28.295Z,99390.36
2023-02-03T17:28:58.742Z,99389.80
2023-02-03T17:31:27.401Z,99392.14
2023-02-03T17:33:56.548Z,99389.98
2023-02-03T17:36:24.877Z,99392.50
2023-02-03T17:55:32.073Z,99395.41
2023-02-03T17:58:00.415Z,99402.65
2023-02-03T18:00:29.021Z,99396.70
2023-02-03T19:37:26.800Z,99371.54
2023-02-03T19:39:55.100Z,99368.02
2023-02-03T19:42:23.388Z,99371.21
2023-02-03T19:44:52.080Z,99367.96
2023-02-03T19:47:20.271Z,99369.34
2023-02-03T19:49:49.510Z,99365.85
2023-02-03T19:52:17.639Z,99363.48
2023-02-03T19:54:47.422Z,99364.88
2023-02-03T19:57:15.393Z,99366.09
2023-02-03T19:59:45.941Z,99362.09
2023-02-03T20:02:27.103Z,99362.85
2023-02-03T20:04:55.951Z,99359.09
2023-02-03T20:07:28.771Z,99360.06
2023-02-03T20:09:58.137Z,99362.01
2023-02-03T20:12:26.205Z,99356.09
2023-02-03T20:14:56.089Z,99359.98
2023-02-03T20:17:24.755Z,99357.56
2023-02-03T20:19:52.769Z,99357.25
2023-02-03T20:22:21.428Z,99358.48
2023-02-03T20:24:49.821Z,99356.09
2023-02-03T20:27:18.077Z,99357.15
2023-02-03T20:29:47.686Z,99355.45
2023-02-03T20:32:16.011Z,99353.80
2023-02-03T20:34:45.661Z,99357.91
2023-02-03T20:37:15.227Z,99354.39
2023-02-03T20:39:45.313Z,99356.02
2023-02-03T20:42:16.718Z,99354.83
2023-02-03T20:44:45.705Z,99353.41
2023-02-03T20:47:17.611Z,99359.36
2023-02-03T20:49:46.509Z,99360.89
2023-02-03T20:52:16.837Z,99358.45
2023-02-03T20:54:46.523Z,99360.23
2023-02-03T20:57:17.664Z,99360.41
2023-02-03T20:59:46.306Z,99362.55
2023-02-03T21:02:23.431Z,99361.50
2023-02-03T21:04:58.002Z,99363.48
2023-02-03T21:07:30.900Z,99365.27
2023-02-03T21:10:00.024Z,99364.89
2023-02-03T21:12:28.889Z,99361.52
2023-02-03T21:14:59.414Z,99360.15
2023-02-03T21:17:27.901Z,99359.73
2023-02-03T21:19:56.445Z,99355.02
2023-02-03T21:22:26.437Z,99359.54
2023-02-03T21:24:57.114Z,99361.66
2023-02-03T21:27:29.968Z,99357.27
2023-02-03T21:29:58.948Z,99361.49
2023-02-03T21:32:37.411Z,99357.09
2023-02-03T21:35:37.226Z,99353.85
2023-02-03T21:38:37.824Z,99353.05
2023-02-03T21:47:16.054Z,99355.15
2023-02-03T21:49:44.224Z,99353.73
2023-02-03T21:52:15.488Z,99354.55
2023-02-03T21:54:44.635Z,99356.71
2023-02-03T21:57:14.311Z,99354.94
2023-02-03T21:59:46.829Z,99355.39
2023-02-03T22:02:39.731Z,99357.61
2023-02-03T22:05:17.096Z,99354.69
2023-02-03T22:07:46.507Z,99359.26
2023-02-03T22:10:17.622Z,99362.68
2023-02-03T22:12:46.949Z,99356.73
2023-02-03T22:15:16.078Z,99360.80
2023-02-03T22:17:48.280Z,99360.34
2023-02-03T22:20:17.988Z,99361.02
2023-02-03T22:22:46.966Z,99364.64
2023-02-03T22:25:16.206Z,99366.02
2023-02-03T22:27:45.085Z,99364.69
2023-02-03T22:30:14.711Z,99364.60
2023-02-03T22:32:44.775Z,99364.86
2023-02-03T22:35:14.259Z,99366.31
2023-02-03T22:37:42.478Z,99370.06
2023-02-03T22:40:12.721Z,99371.79
2023-02-03T22:42:41.594Z,99365.73
2023-02-03T22:45:09.908Z,99370.16
2023-02-03T22:47:38.856Z,99372.48
2023-02-03T22:50:07.686Z,99367.23
2023-02-03T22:52:36.091Z,99365.78
2023-02-03T22:55:10.974Z,99365.60
2023-02-03T22:57:39.363Z,99363.70
2023-02-03T23:00:11.479Z,99358.20
2023-02-03T23:02:40.286Z,99357.85
2023-02-03T23:05:09.196Z,99357.98
2023-02-03T23:07:37.843Z,99358.30
2023-02-03T23:10:08.826Z,99357.69
2023-02-03T23:12:39.726Z,99356.04
2023-02-03T23:15:09.644Z,99349.77
2023-02-03T23:17:38.333Z,99346.92
2023-02-03T23:20:09.451Z,99343.15
2023-02-03T23:22:38.047Z,99345.68
2023-02-03T23:25:06.415Z,99347.04
2023-02-03T23:27:34.900Z,99346.84
2023-02-03T23:30:05.240Z,99343.69
2023-02-03T23:32:33.990Z,99344.52
2023-02-03T23:35:21.624Z,99345.18
2023-02-03T23:37:50.373Z,99353.14
2023-02-03T23:40:18.479Z,99355.99
2023-02-03T23:42:47.086Z,99358.19
2023-02-03T23:45:15.718Z,99355.25
2023-02-03T23:47:44.265Z,99353.21
2023-02-03T23:50:14.898Z,99357.14
2023-02-03T23:52:43.006Z,99356.52
2023-02-03T23:55:13.702Z,99353.10
2023-02-03T23:57:43.354Z,99355.84
